Time;durP1;ratioP1;P1;durP2;ratioP2;P2;SDS_P1;SDS_P2;PMS_P1;PMS_P2;Temp;Humidity;BMP_temperature;BMP_pressure;BME280_temperature;BME280_humidity;BME280_pressure;Samples;Min_cycle;Max_cycle;Signal;HPM_P1;HPM_P2
2023/12/16 00:01:53;;;;;;;;;;;;;;;13.14;nan;103372.47;5026835;28;20016;-86
2023/12/16 00:04:18;;;;;;;;;;;;;;;13.16;nan;103378.47;5027175;28;19986;-85
2023/12/16 00:06:44;;;;;;;;;;;;;;;13.13;nan;103384.25;5026441;28;19921;-85
2023/12/16 00:09:09;;;;;;;;;;;;;;;13.13;nan;103382.41;5027985;28;19921;-85
2023/12/16 00:11:34;;;;;;;;;;;;;;;13.12;nan;103388.81;5029357;28;21114;-85
2023/12/16 00:14:00;;;;;;;;;;;;;;;13.12;nan;103382.59;5029568;28;20645;-85
2023/12/16 00:16:28;;;;;;;;;;;;;;;13.12;nan;103388.81;5026988;28;20396;-86
2023/12/16 00:18:53;;;;;;;;;;;;;;;13.11;nan;103384.47;5028341;28;19925;-85
2023/12/16 00:21:18;;;;;;;;;;;;;;;13.03;nan;103390.00;5028704;28;19931;-85
2023/12/16 00:23:44;;;;;;;;;;;;;;;12.99;nan;103392.28;5027275;28;19920;-85
2023/12/16 00:26:09;;;;;;;;;;;;;;;12.98;nan;103401.38;5027707;28;20534;-85
2023/12/16 00:28:34;;;;;;;;;;;;;;;12.97;nan;103399.72;5008270;28;20002;-85
2023/12/16 00:31:00;;;;;;;;;;;;;;;12.97;nan;103394.34;5027318;28;19974;-85
2023/12/16 00:33:25;;;;;;;;;;;;;;;12.97;nan;103399.72;5027039;28;19951;-85
2023/12/16 00:35:50;;;;;;;;;;;;;;;12.95;nan;103415.22;5026870;28;19933;-85
2023/12/16 00:38:16;;;;;;;;;;;;;;;12.95;nan;103406.34;5027331;28;19920;-85
2023/12/16 00:40:41;;;;;;;;;;;;;;;12.96;nan;103405.31;5028587;28;21231;-86
2023/12/16 00:43:06;;;;;;;;;;;;;;;12.96;nan;103408.81;5026317;28;20594;-85
2023/12/16 00:45:32;;;;;;;;;;;;;;;13.00;nan;103420.00;5026352;28;19920;-84
2023/12/16 00:47:57;;;;;;;;;;;;;;;13.04;nan;103415.88;5026951;28;19925;-85
2023/12/16 00:50:22;;;;;;;;;;;;;;;13.04;nan;103431.19;5028505;28;19925;-86
2023/12/16 00:52:48;;;;;;;;;;;;;;;12.98;nan;103427.47;5012376;28;19931;-85
2023/12/16 00:55:13;;;;;;;;;;;;;;;13.00;nan;103423.53;5032572;28;20007;-84
2023/12/16 00:57:39;;;;;;;;;;;;;;;13.00;nan;103431.59;5031434;28;19947;-86
2023/12/16 01:00:05;;;;;;;;;;;;;;;13.01;nan;103432.44;5032399;28;19928;-85
2023/12/16 01:02:30;;;;;;;;;;;;;;;13.04;nan;103428.50;5032163;28;19932;-86
2023/12/16 01:04:56;;;;;;;;;;;;;;;13.06;nan;103437.22;5031747;28;19924;-85
2023/12/16 01:07:21;;;;;;;;;;;;;;;13.02;nan;103434.94;5032248;28;19978;-84
2023/12/16 01:09:46;;;;;;;;;;;;;;;13.04;nan;103436.59;5032684;28;19921;-85
2023/12/16 01:12:11;;;;;;;;;;;;;;;13.01;nan;103441.34;5031660;28;19921;-86
2023/12/16 01:14:37;;;;;;;;;;;;;;;13.00;nan;103442.38;5033758;28;19925;-85
2023/12/16 01:17:02;;;;;;;;;;;;;;;13.02;nan;103434.94;5031302;28;19974;-85
2023/12/16 01:19:30;;;;;;;;;;;;;;;13.09;nan;103436.81;5032146;28;21617;-85
2023/12/16 01:21:55;;;;;;;;;;;;;;;13.14;nan;103431.69;5034273;28;20019;-85
2023/12/16 01:24:21;;;;;;;;;;;;;;;13.13;nan;103427.34;5033180;28;19932;-85
2023/12/16 01:26:46;;;;;;;;;;;;;;;13.10;nan;103431.22;5031762;28;20374;-86
2023/12/16 01:29:11;;;;;;;;;;;;;;;13.13;nan;103421.94;5033463;28;19932;-85
2023/12/16 01:31:37;;;;;;;;;;;;;;;13.12;nan;103418.44;5033089;28;19947;-85
2023/12/16 01:34:02;;;;;;;;;;;;;;;13.12;nan;103423.81;5014689;28;19929;-85
2023/12/16 01:36:27;;;;;;;;;;;;;;;13.12;nan;103429.19;5031120;28;19930;-85
2023/12/16 01:38:53;;;;;;;;;;;;;;;13.12;nan;103418.44;5033743;28;19931;-85
2023/12/16 01:41:18;;;;;;;;;;;;;;;13.13;nan;103419.25;5034591;28;19924;-85
2023/12/16 01:43:43;;;;;;;;;;;;;;;13.16;nan;103422.38;5031513;28;21301;-85
2023/12/16 01:46:09;;;;;;;;;;;;;;;13.17;nan;103415.13;5030935;28;20235;-85
2023/12/16 01:48:34;;;;;;;;;;;;;;;13.13;nan;103414.69;5031809;28;20037;-85
2023/12/16 01:51:03;;;;;;;;;;;;;;;13.10;nan;103414.25;5033001;28;20495;-85
2023/12/16 01:53:29;;;;;;;;;;;;;;;13.09;nan;103417.97;5028310;28;19936;-85
2023/12/16 01:55:55;;;;;;;;;;;;;;;13.10;nan;103417.75;5032663;28;19947;-85
2023/12/16 01:58:21;;;;;;;;;;;;;;;13.07;nan;103415.47;5032880;28;20423;-85
2023/12/16 02:00:47;;;;;;;;;;;;;;;13.09;nan;103424.19;5031923;28;19920;-85
2023/12/16 02:03:14;;;;;;;;;;;;;;;13.13;nan;103427.34;5031772;28;21088;-85
2023/12/16 02:05:39;;;;;;;;;;;;;;;13.15;nan;103418.03;5031734;28;19971;-85
2023/12/16 02:08:05;;;;;;;;;;;;;;;13.19;nan;103419.31;5031507;28;20368;-85
2023/12/16 02:10:30;;;;;;;;;;;;;;;13.18;nan;103417.66;5031037;28;20389;-85
2023/12/16 02:12:55;;;;;;;;;;;;;;;13.23;nan;103417.03;5029980;28;19925;-85
2023/12/16 02:15:21;;;;;;;;;;;;;;;13.24;nan;103424.09;5031711;28;19925;-85
2023/12/16 02:17:46;;;;;;;;;;;;;;;13.25;nan;103426.56;5030194;28;19925;-85
2023/12/16 02:20:13;;;;;;;;;;;;;;;13.27;nan;103423.69;5031254;28;19925;-85
2023/12/16 02:22:38;;;;;;;;;;;;;;;13.30;nan;103428.69;5031971;28;19931;-86
2023/12/16 02:25:07;;;;;;;;;;;;;;;13.27;nan;103426.38;5031148;28;19925;-85
2023/12/16 02:27:32;;;;;;;;;;;;;;;13.28;nan;103428.03;5030849;28;19967;-85
2023/12/16 02:29:57;;;;;;;;;;;;;;;13.26;nan;103425.53;5031368;28;20051;-85
2023/12/16 02:32:23;;;;;;;;;;;;;;;13.29;nan;103432.41;5030664;28;19924;-85
2023/12/16 02:34:48;;;;;;;;;;;;;;;13.33;nan;103430.13;5031514;28;19928;-85
2023/12/16 02:37:13;;;;;;;;;;;;;;;13.34;nan;103427.25;5030759;28;19956;-85
2023/12/16 02:39:39;;;;;;;;;;;;;;;13.35;nan;103431.59;5030696;28;19974;-85
2023/12/16 02:42:04;;;;;;;;;;;;;;;13.36;nan;103437.81;5031105;28;20905;-85
2023/12/16 02:44:29;;;;;;;;;;;;;;;13.32;nan;103429.31;5031862;28;20385;-85
2023/12/16 02:46:55;;;;;;;;;;;;;;;13.37;nan;103434.09;5029817;28;19925;-85
2023/12/16 02:49:20;;;;;;;;;;;;;;;13.38;nan;103431.19;5030750;28;20445;-85
2023/12/16 02:51:46;;;;;;;;;;;;;;;13.41;nan;103419.19;5027869;28;19925;-85
2023/12/16 02:54:11;;;;;;;;;;;;;;;13.41;nan;103422.69;5031111;28;19929;-85
2023/12/16 02:56:36;;;;;;;;;;;;;;;13.34;nan;103413.78;5030904;28;19924;-84
2023/12/16 02:59:02;;;;;;;;;;;;;;;13.34;nan;103411.09;5033426;28;20347;-85
2023/12/16 03:01:27;;;;;;;;;;;;;;;13.35;nan;103417.31;5029643;28;20505;-85
2023/12/16 03:03:52;;;;;;;;;;;;;;;13.35;nan;103418.13;5028385;28;19971;-85
2023/12/16 03:06:18;;;;;;;;;;;;;;;13.31;nan;103416.88;5030628;28;21161;-85
2023/12/16 03:08:43;;;;;;;;;;;;;;;13.32;nan;103420.41;5031823;28;19994;-85
2023/12/16 03:11:09;;;;;;;;;;;;;;;13.33;nan;103433.66;5030702;28;20472;-84
2023/12/16 03:13:34;;;;;;;;;;;;;;;13.34;nan;103434.50;5032838;28;19944;-85
2023/12/16 03:15:59;;;;;;;;;;;;;;;13.37;nan;103439.47;5030633;28;20834;-85
2023/12/16 03:18:24;;;;;;;;;;;;;;;13.34;nan;103440.72;5033033;28;20035;-85
2023/12/16 03:20:50;;;;;;;;;;;;;;;13.34;nan;103431.81;5029887;28;19925;-85
2023/12/16 03:23:15;;;;;;;;;;;;;;;13.35;nan;103434.28;5030026;28;20316;-85
2023/12/16 03:25:44;;;;;;;;;;;;;;;13.37;nan;103437.59;5012482;28;20304;-85
2023/12/16 03:28:09;;;;;;;;;;;;;;;13.38;nan;103433.88;5030806;28;19931;-85
2023/12/16 03:30:37;;;;;;;;;;;;;;;13.33;nan;103440.91;5032041;28;20368;-85
2023/12/16 03:33:03;;;;;;;;;;;;;;;13.37;nan;103452.94;5028786;28;20822;-85
2023/12/16 03:35:28;;;;;;;;;;;;;;;13.37;nan;103445.69;5032088;28;19929;-85
2023/12/16 03:37:53;;;;;;;;;;;;;;;13.42;nan;103455.84;5032396;28;19925;-86
2023/12/16 03:40:19;;;;;;;;;;;;;;;13.45;nan;103458.97;5032331;28;19936;-85
2023/12/16 03:42:44;;;;;;;;;;;;;;;13.49;nan;103449.47;5029975;28;19925;-84
2023/12/16 03:45:09;;;;;;;;;;;;;;;13.50;nan;103448.44;5031588;28;19931;-85
2023/12/16 03:47:35;;;;;;;;;;;;;;;13.48;nan;103455.88;5032369;28;19971;-86
2023/12/16 03:50:00;;;;;;;;;;;;;;;13.45;nan;103455.44;5030746;28;19929;-85
2023/12/16 03:52:25;;;;;;;;;;;;;;;13.43;nan;103446.72;5031473;28;19931;-85
2023/12/16 03:54:51;;;;;;;;;;;;;;;13.44;nan;103446.53;5031461;28;19986;-85
2023/12/16 03:57:16;;;;;;;;;;;;;;;13.48;nan;103445.13;5031459;28;20537;-85
2023/12/16 03:59:41;;;;;;;;;;;;;;;13.46;nan;103446.31;5031971;28;19925;-86
2023/12/16 04:02:07;;;;;;;;;;;;;;;13.45;nan;103440.09;5028640;28;20013;-85
2023/12/16 04:04:33;;;;;;;;;;;;;;;13.41;nan;103430.78;5032463;28;19931;-85
2023/12/16 04:07:00;;;;;;;;;;;;;;;13.39;nan;103427.47;5030423;28;19936;-86
2023/12/16 04:09:26;;;;;;;;;;;;;;;13.37;nan;103429.53;5031561;28;20013;-85
2023/12/16 04:11:51;;;;;;;;;;;;;;;13.39;nan;103427.47;5029300;28;20007;-85
2023/12/16 04:14:17;;;;;;;;;;;;;;;13.40;nan;103426.44;5031081;28;19929;-85
2023/12/16 04:16:42;;;;;;;;;;;;;;;13.45;nan;103429.34;5030312;28;20043;-85
2023/12/16 04:19:07;;;;;;;;;;;;;;;13.45;nan;103434.72;5031238;28;19972;-85
2023/12/16 04:21:33;;;;;;;;;;;;;;;13.44;nan;103430.38;5028612;28;20557;-85
2023/12/16 04:23:58;;;;;;;;;;;;;;;13.44;nan;103438.44;5030791;28;21176;-85
2023/12/16 04:26:24;;;;;;;;;;;;;;;13.49;nan;103433.31;5033466;28;20496;-85
2023/12/16 04:28:49;;;;;;;;;;;;;;;13.54;nan;103430.84;5033757;28;19931;-85
2023/12/16 04:31:17;;;;;;;;;;;;;;;13.54;nan;103428.13;5015544;28;20418;-86
2023/12/16 04:33:42;;;;;;;;;;;;;;;13.50;nan;103437.66;5034554;28;20015;-86
2023/12/16 04:36:17;;;;;;;;;;;;;;;13.52;nan;103440.16;5035952;28;20549;-84
2023/12/16 04:38:43;;;;;;;;;;;;;;;13.57;nan;103448.44;5035367;28;19929;-85
2023/12/16 04:41:14;;;;;;;;;;;;;;;13.51;nan;103450.09;5034229;28;19925;-85
2023/12/16 04:43:40;;;;;;;;;;;;;;;13.50;nan;103451.13;5034201;28;20015;-87
2023/12/16 04:46:06;;;;;;;;;;;;;;;13.48;nan;103461.28;5034194;28;19925;-85
2023/12/16 04:48:31;;;;;;;;;;;;;;;13.50;nan;103463.78;5033608;28;19925;-85
2023/12/16 04:50:57;;;;;;;;;;;;;;;13.49;nan;103471.03;5032560;28;19932;-85
2023/12/16 04:53:22;;;;;;;;;;;;;;;13.45;nan;103472.44;5032666;28;19956;-86
2023/12/16 04:55:48;;;;;;;;;;;;;;;13.43;nan;103473.66;5032018;28;20436;-86
2023/12/16 04:58:13;;;;;;;;;;;;;;;13.42;nan;103470.16;5033444;28;19925;-85
2023/12/16 05:00:38;;;;;;;;;;;;;;;13.41;nan;103468.47;5034182;28;20373;-85
2023/12/16 05:03:04;;;;;;;;;;;;;;;13.40;nan;103472.22;5034716;28;19928;-85
2023/12/16 05:05:29;;;;;;;;;;;;;;;13.35;nan;103476.53;5034683;28;19924;-85
2023/12/16 05:07:54;;;;;;;;;;;;;;;13.30;nan;103488.75;5034638;28;19928;-86
2023/12/16 05:10:20;;;;;;;;;;;;;;;13.30;nan;103493.31;5036430;28;20363;-85
2023/12/16 05:12:45;;;;;;;;;;;;;;;13.25;nan;103501.13;5034462;28;20468;-85
2023/12/16 05:15:10;;;;;;;;;;;;;;;13.23;nan;103501.34;5034154;28;20383;-86
2023/12/16 05:17:36;;;;;;;;;;;;;;;13.25;nan;103498.44;5022141;28;19924;-85
2023/12/16 05:20:01;;;;;;;;;;;;;;;13.21;nan;103489.09;5030556;28;20218;-85
2023/12/16 05:22:27;;;;;;;;;;;;;;;13.20;nan;103487.44;5016060;28;19925;-86
2023/12/16 05:24:52;;;;;;;;;;;;;;;13.15;nan;103496.09;5033225;28;19924;-86
2023/12/16 05:27:17;;;;;;;;;;;;;;;13.15;nan;103490.69;5032398;28;19944;-85
2023/12/16 05:29:44;;;;;;;;;;;;;;;13.15;nan;103488.00;5033933;28;19925;-86
2023/12/16 05:32:09;;;;;;;;;;;;;;;13.18;nan;103490.34;5031328;28;19925;-85
2023/12/16 05:34:35;;;;;;;;;;;;;;;13.18;nan;103492.19;5033632;28;19975;-85
2023/12/16 05:37:00;;;;;;;;;;;;;;;13.17;nan;103485.13;5033565;28;19929;-85
2023/12/16 05:39:26;;;;;;;;;;;;;;;13.16;nan;103496.91;5032850;28;19932;-85
2023/12/16 05:41:51;;;;;;;;;;;;;;;13.12;nan;103501.03;5031823;28;19948;-85
2023/12/16 05:44:17;;;;;;;;;;;;;;;13.11;nan;103499.38;5033351;28;20017;-86
2023/12/16 05:46:42;;;;;;;;;;;;;;;13.12;nan;103509.13;5032212;28;19978;-85
2023/12/16 05:49:07;;;;;;;;;;;;;;;13.12;nan;103503.72;5032863;28;19931;-85
2023/12/16 05:51:39;;;;;;;;;;;;;;;13.13;nan;103502.72;5032779;28;19966;-85
2023/12/16 05:54:06;;;;;;;;;;;;;;;13.16;nan;103499.59;5034501;28;19928;-86
2023/12/16 05:56:31;;;;;;;;;;;;;;;13.17;nan;103483.25;5032902;28;19921;-85
2023/12/16 05:58:56;;;;;;;;;;;;;;;13.15;nan;103479.09;5032253;28;19931;-85
2023/12/16 06:01:22;;;;;;;;;;;;;;;13.14;nan;103477.44;5031835;28;19924;-85
2023/12/16 06:03:47;;;;;;;;;;;;;;;13.19;nan;103483.09;5033616;28;19925;-85
2023/12/16 06:06:15;;;;;;;;;;;;;;;13.19;nan;103486.63;5032085;28;19925;-85
2023/12/16 06:08:40;;;;;;;;;;;;;;;13.19;nan;103496.56;5032612;28;19917;-85
2023/12/16 06:11:09;;;;;;;;;;;;;;;13.20;nan;103496.34;5031971;28;19935;-85
2023/12/16 06:13:35;;;;;;;;;;;;;;;13.24;nan;103512.94;5034291;28;20800;-86
2023/12/16 06:16:00;;;;;;;;;;;;;;;13.29;nan;103515.88;5033617;28;19921;-85
2023/12/16 06:18:25;;;;;;;;;;;;;;;13.28;nan;103514.19;5029260;28;20874;-85
2023/12/16 06:20:51;;;;;;;;;;;;;;;13.32;nan;103512.78;5032440;28;19964;-85
2023/12/16 06:23:16;;;;;;;;;;;;;;;13.35;nan;103511.56;5031947;28;19925;-85
2023/12/16 06:25:41;;;;;;;;;;;;;;;13.39;nan;103512.81;5033186;28;19958;-86
2023/12/16 06:28:07;;;;;;;;;;;;;;;13.38;nan;103506.59;5033659;28;21121;-86
2023/12/16 06:30:32;;;;;;;;;;;;;;;13.36;nan;103502.44;5033687;28;19925;-86
2023/12/16 06:32:58;;;;;;;;;;;;;;;13.31;nan;103497.66;5031279;28;20412;-86
2023/12/16 06:35:23;;;;;;;;;;;;;;;13.33;nan;103487.53;5031912;28;19964;-86
2023/12/16 06:37:48;;;;;;;;;;;;;;;13.35;nan;103485.44;5031291;28;20043;-85
2023/12/16 06:40:13;;;;;;;;;;;;;;;13.32;nan;103488.56;5013096;28;20407;-85
2023/12/16 06:42:39;;;;;;;;;;;;;;;13.27;nan;103493.69;5031581;28;19932;-86
2023/12/16 06:45:05;;;;;;;;;;;;;;;13.27;nan;103502.59;5032062;28;20419;-85
2023/12/16 06:47:30;;;;;;;;;;;;;;;13.28;nan;103498.91;5031863;28;19920;-86
2023/12/16 06:49:55;;;;;;;;;;;;;;;13.24;nan;103499.47;5030676;28;20452;-85
2023/12/16 06:52:22;;;;;;;;;;;;;;;13.24;nan;103492.22;5034151;28;19925;-85
2023/12/16 06:54:47;;;;;;;;;;;;;;;13.18;nan;103489.50;5029959;28;19937;-85
2023/12/16 06:57:12;;;;;;;;;;;;;;;13.13;nan;103494.63;5030808;28;19925;-84
2023/12/16 06:59:38;;;;;;;;;;;;;;;13.11;nan;103504.75;5021959;28;19924;-86
2023/12/16 07:02:03;;;;;;;;;;;;;;;13.13;nan;103505.41;5030339;28;19925;-85
2023/12/16 07:04:28;;;;;;;;;;;;;;;13.16;nan;103513.06;5031533;28;19929;-85
2023/12/16 07:06:53;;;;;;;;;;;;;;;13.16;nan;103510.38;5031501;28;19925;-85
2023/12/16 07:09:19;;;;;;;;;;;;;;;13.14;nan;103507.06;5030523;28;19939;-86
2023/12/16 07:11:44;;;;;;;;;;;;;;;13.08;nan;103508.66;5029820;28;19917;-85
2023/12/16 07:14:09;;;;;;;;;;;;;;;12.98;nan;103514.41;5028941;28;21192;-85
2023/12/16 07:16:35;;;;;;;;;;;;;;;12.95;nan;103520.19;5030659;28;19923;-85
2023/12/16 07:19:00;;;;;;;;;;;;;;;12.97;nan;103523.50;5028963;28;21132;-86
2023/12/16 07:21:27;;;;;;;;;;;;;;;13.01;nan;103523.94;5031430;28;19932;-85
2023/12/16 07:23:52;;;;;;;;;;;;;;;13.00;nan;103506.97;5031027;28;19967;-86
2023/12/16 07:26:17;;;;;;;;;;;;;;;12.97;nan;103499.28;5028842;28;20165;-86
2023/12/16 07:28:43;;;;;;;;;;;;;;;12.92;nan;103487.44;5031252;28;19924;-85
2023/12/16 07:31:08;;;;;;;;;;;;;;;12.85;nan;103492.78;5030066;28;19998;-85
2023/12/16 07:33:36;;;;;;;;;;;;;;;12.79;nan;103506.19;5029428;28;19935;-86
2023/12/16 07:36:02;;;;;;;;;;;;;;;12.77;nan;103509.09;5031529;28;19925;-86
2023/12/16 07:38:27;;;;;;;;;;;;;;;12.76;nan;103504.72;5031834;28;19928;-85
2023/12/16 07:40:53;;;;;;;;;;;;;;;12.72;nan;103500.75;5031247;28;19939;-86
2023/12/16 07:43:18;;;;;;;;;;;;;;;12.67;nan;103490.56;5031833;28;19975;-86
2023/12/16 07:45:43;;;;;;;;;;;;;;;12.66;nan;103496.16;5032614;28;19935;-86
2023/12/16 07:48:08;;;;;;;;;;;;;;;12.67;nan;103495.13;5031238;28;20004;-85
2023/12/16 07:50:34;;;;;;;;;;;;;;;12.61;nan;103507.50;5031864;28;19994;-86
2023/12/16 07:52:59;;;;;;;;;;;;;;;12.56;nan;103512.63;5032262;28;19943;-85
2023/12/16 07:55:27;;;;;;;;;;;;;;;12.50;nan;103515.25;5030696;28;20428;-86
2023/12/16 07:57:52;;;;;;;;;;;;;;;12.49;nan;103514.44;5030884;28;20015;-89
2023/12/16 08:00:19;;;;;;;;;;;;;;;12.50;nan;103520.63;5030790;28;19921;-85
2023/12/16 08:02:44;;;;;;;;;;;;;;;12.46;nan;103516.69;5031231;28;19925;-86
2023/12/16 08:05:10;;;;;;;;;;;;;;;12.45;nan;103509.63;5014319;28;19927;-86
2023/12/16 08:07:35;;;;;;;;;;;;;;;12.44;nan;103506.13;5031585;28;19955;-86
2023/12/16 08:10:01;;;;;;;;;;;;;;;12.44;nan;103495.38;5031755;28;20016;-87
2023/12/16 08:12:26;;;;;;;;;;;;;;;12.43;nan;103509.00;5032702;28;19925;-84
2023/12/16 08:14:51;;;;;;;;;;;;;;;12.41;nan;103506.50;5032537;28;19931;-86
2023/12/16 08:17:17;;;;;;;;;;;;;;;12.44;nan;103510.66;5012713;28;20487;-86
2023/12/16 08:19:43;;;;;;;;;;;;;;;12.48;nan;103517.31;5030050;28;19975;-88
2023/12/16 08:22:08;;;;;;;;;;;;;;;12.51;nan;103514.22;5030105;28;19917;-86
2023/12/16 08:24:33;;;;;;;;;;;;;;;12.54;nan;103517.34;5030198;28;20399;-86
2023/12/16 08:26:59;;;;;;;;;;;;;;;12.58;nan;103504.38;5031965;28;19951;-86
2023/12/16 08:29:24;;;;;;;;;;;;;;;12.60;nan;103500.47;5032470;28;20335;-86
2023/12/16 08:31:49;;;;;;;;;;;;;;;12.66;nan;103497.00;5032842;28;19948;-86
2023/12/16 08:34:15;;;;;;;;;;;;;;;12.70;nan;103492.88;5032263;28;19936;-86
2023/12/16 08:36:41;;;;;;;;;;;;;;;12.68;nan;103497.63;5032710;28;20063;-86
2023/12/16 08:39:06;;;;;;;;;;;;;;;12.66;nan;103494.31;5032730;28;19921;-86
2023/12/16 08:41:32;;;;;;;;;;;;;;;12.65;nan;103498.00;5029568;28;19924;-85
2023/12/16 08:43:57;;;;;;;;;;;;;;;12.70;nan;103494.72;5028411;28;20059;-86
2023/12/16 08:46:24;;;;;;;;;;;;;;;12.77;nan;103494.81;5029907;28;19921;-87
2023/12/16 08:48:50;;;;;;;;;;;;;;;12.81;nan;103491.53;5030461;28;19921;-86
2023/12/16 08:51:22;;;;;;;;;;;;;;;12.88;nan;103487.00;5027402;28;19932;-86
2023/12/16 08:53:47;;;;;;;;;;;;;;;12.94;nan;103497.00;5031807;28;19979;-86
2023/12/16 08:56:13;;;;;;;;;;;;;;;13.04;nan;103493.94;5029585;28;20516;-86
2023/12/16 08:58:38;;;;;;;;;;;;;;;13.05;nan;103505.53;5032745;28;19925;-86
2023/12/16 09:01:04;;;;;;;;;;;;;;;13.10;nan;103517.38;5028897;28;20462;-86
2023/12/16 09:03:29;;;;;;;;;;;;;;;13.11;nan;103508.28;5031720;28;19925;-87
2023/12/16 09:05:54;;;;;;;;;;;;;;;13.15;nan;103503.34;5030631;28;19921;-85
2023/12/16 09:08:19;;;;;;;;;;;;;;;13.16;nan;103503.13;5032570;28;19975;-86
2023/12/16 09:10:45;;;;;;;;;;;;;;;13.13;nan;103497.31;5030696;28;19921;-86
2023/12/16 09:13:10;;;;;;;;;;;;;;;13.13;nan;103505.41;5034080;28;19925;-86
2023/12/16 09:15:36;;;;;;;;;;;;;;;13.14;nan;103507.88;5033878;28;19924;-86
2023/12/16 09:18:01;;;;;;;;;;;;;;;13.08;nan;103502.44;5035939;28;19925;-87
2023/12/16 09:20:27;;;;;;;;;;;;;;;13.02;nan;103504.91;5034676;28;20458;-86
2023/12/16 09:22:52;;;;;;;;;;;;;;;13.00;nan;103498.06;5033558;28;19928;-88
2023/12/16 09:25:18;;;;;;;;;;;;;;;13.01;nan;103502.41;5034982;28;19941;-85
2023/12/16 09:27:43;;;;;;;;;;;;;;;13.05;nan;103509.06;5036036;28;19948;-86
2023/12/16 09:30:09;;;;;;;;;;;;;;;13.05;nan;103500.16;5035139;28;19913;-86
2023/12/16 09:32:35;;;;;;;;;;;;;;;13.11;nan;103510.16;5033778;28;19924;-85
2023/12/16 09:35:00;;;;;;;;;;;;;;;13.13;nan;103502.72;5035925;28;20061;-86
2023/12/16 09:37:25;;;;;;;;;;;;;;;13.16;nan;103505.00;5034396;28;20400;-86
2023/12/16 09:39:50;;;;;;;;;;;;;;;13.15;nan;103501.47;5035159;28;20047;-86
2023/12/16 09:42:17;;;;;;;;;;;;;;;13.18;nan;103500.28;5035955;28;19966;-85
2023/12/16 09:44:43;;;;;;;;;;;;;;;13.16;nan;103500.44;5034835;28;19917;-88
2023/12/16 09:47:11;;;;;;;;;;;;;;;13.18;nan;103501.09;5034915;28;19932;-86
2023/12/16 09:49:38;;;;;;;;;;;;;;;13.21;nan;103513.34;5037118;28;20302;-87
2023/12/16 09:52:03;;;;;;;;;;;;;;;13.22;nan;103513.13;5033409;28;20473;-87
2023/12/16 09:54:29;;;;;;;;;;;;;;;13.25;nan;103510.03;5036249;28;20015;-86
2023/12/16 09:56:56;;;;;;;;;;;;;;;13.32;nan;103523.56;5034789;28;20028;-85
2023/12/16 09:59:21;;;;;;;;;;;;;;;13.39;nan;103515.50;5034551;28;19920;-86
2023/12/16 10:01:52;;;;;;;;;;;;;;;13.44;nan;103519.25;5032009;28;19932;-87
2023/12/16 10:04:17;;;;;;;;;;;;;;;13.57;nan;103503.16;5035326;28;19921;-87
2023/12/16 10:06:43;;;;;;;;;;;;;;;13.68;nan;103495.53;5036210;28;19927;-86
2023/12/16 10:09:08;;;;;;;;;;;;;;;13.84;nan;103500.56;5036152;28;19921;-85
2023/12/16 10:11:40;;;;;;;;;;;;;;;13.99;nan;103494.97;5036743;28;19925;-88
2023/12/16 10:14:05;;;;;;;;;;;;;;;14.08;nan;103486.53;5022830;28;20446;-86
2023/12/16 10:16:31;;;;;;;;;;;;;;;14.13;nan;103484.03;5035278;28;19921;-84
2023/12/16 10:18:57;;;;;;;;;;;;;;;14.21;nan;103481.16;5034710;28;20031;-86
2023/12/16 10:21:26;;;;;;;;;;;;;;;14.27;nan;103474.09;5032773;28;19974;-88
2023/12/16 10:23:51;;;;;;;;;;;;;;;14.23;nan;103486.34;5034877;28;19931;-87
2023/12/16 10:26:17;;;;;;;;;;;;;;;14.15;nan;103476.56;5037834;28;20324;-90
2023/12/16 10:28:49;;;;;;;;;;;;;;;14.09;nan;103479.25;5036167;28;19960;-88
2023/12/16 10:31:15;;;;;;;;;;;;;;;14.08;nan;103488.38;5033784;28;20023;-89
2023/12/16 10:33:41;;;;;;;;;;;;;;;13.98;nan;103477.97;5035414;28;20426;-90
2023/12/16 10:36:08;;;;;;;;;;;;;;;13.91;nan;103475.28;5036977;28;19921;-89
2023/12/16 10:38:33;;;;;;;;;;;;;;;13.85;nan;103473.41;5034912;28;19925;-88
2023/12/16 10:40:58;;;;;;;;;;;;;;;13.81;nan;103471.31;5035628;28;20367;-87
2023/12/16 10:43:24;;;;;;;;;;;;;;;13.84;nan;103469.06;5031876;28;19925;-88
2023/12/16 10:45:50;;;;;;;;;;;;;;;13.88;nan;103461.41;5012935;28;19917;-86
2023/12/16 10:48:19;;;;;;;;;;;;;;;13.91;nan;103466.38;5035356;28;19971;-89
2023/12/16 10:50:46;;;;;;;;;;;;;;;13.89;nan;103468.44;5037138;28;19921;-86
2023/12/16 10:53:20;;;;;;;;;;;;;;;13.92;nan;103462.63;5039402;28;19921;-87
2023/12/16 10:55:49;;;;;;;;;;;;;;;13.97;nan;103454.75;5038592;28;19960;-87
2023/12/16 10:58:20;;;;;;;;;;;;;;;14.06;nan;103456.25;5036788;28;20015;-87
2023/12/16 11:00:48;;;;;;;;;;;;;;;14.13;nan;103462.47;5037437;28;20011;-86
2023/12/16 11:03:14;;;;;;;;;;;;;;;14.13;nan;103457.06;5020863;28;20079;-88
2023/12/16 11:05:45;;;;;;;;;;;;;;;14.09;nan;103458.53;5038224;28;20333;-88
2023/12/16 11:08:11;;;;;;;;;;;;;;;14.09;nan;103458.53;5036836;28;19916;-88
2023/12/16 11:10:37;;;;;;;;;;;;;;;14.19;nan;103453.56;5038132;28;19940;-89
2023/12/16 11:13:04;;;;;;;;;;;;;;;14.23;nan;103453.97;5036388;28;19917;-90
2023/12/16 11:15:32;;;;;;;;;;;;;;;14.24;nan;103441.31;5038648;28;19921;-85
2023/12/16 11:18:01;;;;;;;;;;;;;;;14.27;nan;103438.22;5018294;28;20684;-87
2023/12/16 11:20:40;;;;;;;;;;;;;;;14.30;nan;103427.00;5036162;28;19961;-87
2023/12/16 11:23:06;;;;;;;;;;;;;;;14.30;nan;103427.00;5035922;28;19940;-87
2023/12/16 11:25:33;;;;;;;;;;;;;;;14.30;nan;103405.44;5037128;28;20515;-87
2023/12/16 11:28:01;;;;;;;;;;;;;;;14.31;nan;103391.72;5034791;28;19921;-88
2023/12/16 11:30:26;;;;;;;;;;;;;;;14.34;nan;103398.56;5035447;28;20435;-86
2023/12/16 11:32:55;;;;;;;;;;;;;;;14.36;nan;103391.09;5037689;28;19929;-90
2023/12/16 11:35:53;;;;;;;;;;;;;;;14.34;nan;103403.97;5034962;28;19933;-87
2023/12/16 11:38:38;;;;;;;;;;;;;;;14.33;nan;103397.75;4997456;28;19925;-84
2023/12/16 11:41:04;;;;;;;;;;;;;;;14.35;nan;103392.13;5040059;28;19963;-89
2023/12/16 11:43:49;;;;;;;;;;;;;;;14.40;nan;103392.34;5037494;28;20381;-87
2023/12/16 11:46:33;;;;;;;;;;;;;;;14.46;nan;103372.66;5019328;28;19924;-86
2023/12/16 11:49:01;;;;;;;;;;;;;;;14.51;nan;103379.06;5034478;28;19924;-87
2023/12/16 11:51:27;;;;;;;;;;;;;;;14.59;nan;103372.66;5030027;28;19944;-89
2023/12/16 11:53:54;;;;;;;;;;;;;;;14.60;nan;103371.59;5034890;28;19933;-87
2023/12/16 11:56:19;;;;;;;;;;;;;;;14.62;nan;103366.81;5030066;28;20007;-90
2023/12/16 11:58:45;;;;;;;;;;;;;;;14.73;nan;103376.16;5030928;28;20019;-88
2023/12/16 12:01:10;;;;;;;;;;;;;;;14.70;nan;103377.38;5037667;28;20557;-86
2023/12/16 12:03:36;;;;;;;;;;;;;;;14.72;nan;103369.91;5036215;28;20007;-89
2023/12/16 12:06:03;;;;;;;;;;;;;;;14.77;nan;103370.09;5036711;28;20293;-87
2023/12/16 12:08:28;;;;;;;;;;;;;;;14.73;nan;103368.88;5037769;28;19924;-88
2023/12/16 12:10:53;;;;;;;;;;;;;;;14.77;nan;103367.41;5040107;28;19928;-89
2023/12/16 12:13:19;;;;;;;;;;;;;;;14.71;nan;103365.53;5036918;28;19924;-89
2023/12/16 12:15:44;;;;;;;;;;;;;;;14.70;nan;103353.09;5036470;28;19929;-90
2023/12/16 12:18:10;;;;;;;;;;;;;;;14.71;nan;103353.91;5034227;28;19927;-86
2023/12/16 12:20:35;;;;;;;;;;;;;;;14.70;nan;103357.66;5036828;28;19932;-85
2023/12/16 12:23:01;;;;;;;;;;;;;;;14.74;nan;103345.41;5036745;28;19920;-86
2023/12/16 12:25:26;;;;;;;;;;;;;;;14.72;nan;103340.25;5015916;28;19925;-88
2023/12/16 12:27:51;;;;;;;;;;;;;;;14.74;nan;103337.31;5034410;28;19967;-88
2023/12/16 12:30:20;;;;;;;;;;;;;;;14.76;nan;103330.66;5036789;28;20004;-87
2023/12/16 12:32:46;;;;;;;;;;;;;;;14.79;nan;103318.63;5035288;28;19968;-88
2023/12/16 12:35:11;;;;;;;;;;;;;;;14.80;nan;103321.09;5039601;28;19971;-87
2023/12/16 12:37:43;;;;;;;;;;;;;;;14.85;nan;103320.44;5036622;28;20312;-88
2023/12/16 12:40:12;;;;;;;;;;;;;;;14.90;nan;103306.28;5033872;28;19921;-88
2023/12/16 12:42:48;;;;;;;;;;;;;;;14.94;nan;103311.06;5037516;28;20109;-90
2023/12/16 12:45:23;;;;;;;;;;;;;;;14.93;nan;103300.50;5041930;28;19974;-86
2023/12/16 12:47:49;;;;;;;;;;;;;;;14.90;nan;103303.59;5040296;28;20361;-86
2023/12/16 12:50:21;;;;;;;;;;;;;;;14.94;nan;103300.28;5043185;28;19925;-88
2023/12/16 12:52:46;;;;;;;;;;;;;;;14.97;nan;103301.72;5037138;28;19931;-88